Akureyri Airport

BIAR | AEY

Akureyri , Northeast , Iceland

Thursday, September 19th, 2019 | 19:22

Weather

BIAR 191900Z 18009KT 9999 BKN055 15/08 Q1002 RMK WIND VADLAHEIDI 19015KT

Charts

1 Available

Gates

6 Available

Runways

1 Available

Events

No events for this airport


New event